createdAt,value
2023-02-02T00:01:01.738Z,-7.82
2023-02-02T00:03:28.266Z,-7.77
2023-02-02T00:05:56.108Z,-7.91
2023-02-02T00:08:24.145Z,-7.94
2023-02-02T00:10:51.992Z,-7.56
2023-02-02T00:13:19.627Z,-7.55
2023-02-02T00:15:46.131Z,-7.62
2023-02-02T00:18:12.820Z,-7.71
2023-02-02T00:20:39.566Z,-7.82
2023-02-02T00:23:06.080Z,-7.73
2023-02-02T00:25:32.860Z,-7.75
2023-02-02T00:27:59.411Z,-8.07
2023-02-02T00:30:25.956Z,-8.15
2023-02-02T00:32:53.269Z,-8.23
2023-02-02T00:35:19.887Z,-8.23
2023-02-02T00:37:47.648Z,-8.03
2023-02-02T00:40:16.072Z,-7.87
2023-02-02T00:42:43.601Z,-7.80
2023-02-02T00:45:15.911Z,-7.60
2023-02-02T00:47:44.819Z,-7.59
2023-02-02T00:50:12.660Z,-7.48
2023-02-02T00:52:39.667Z,-7.37
2023-02-02T00:55:06.531Z,-7.39
2023-02-02T00:57:33.063Z,-7.47
2023-02-02T00:59:59.745Z,-7.49
2023-02-02T01:02:26.387Z,-7.59
2023-02-02T01:04:52.947Z,-7.58
2023-02-02T01:07:19.493Z,-7.48
2023-02-02T01:09:45.995Z,-7.43
2023-02-02T01:12:12.526Z,-7.48
2023-02-02T01:14:40.406Z,-7.67
2023-02-02T01:17:08.031Z,-7.75
2023-02-02T01:19:34.536Z,-7.99
2023-02-02T01:22:03.500Z,-8.24
2023-02-02T01:24:30.117Z,-8.27
2023-02-02T01:26:56.574Z,-8.08
2023-02-02T01:29:23.076Z,-8.20
2023-02-02T01:31:50.056Z,-7.79
2023-02-02T01:34:16.551Z,-7.95
2023-02-02T01:36:43.024Z,-7.92
2023-02-02T01:39:10.685Z,-7.82
2023-02-02T01:41:37.194Z,-7.91
2023-02-02T01:44:04.912Z,-7.77
2023-02-02T01:46:32.689Z,-7.75
2023-02-02T01:48:59.259Z,-7.82
2023-02-02T01:51:29.878Z,-7.77
2023-02-02T01:53:58.678Z,-7.83
2023-02-02T01:56:28.839Z,-7.79
2023-02-02T01:58:56.875Z,-7.79
2023-02-02T02:01:23.741Z,-7.76
2023-02-02T02:03:50.507Z,-7.82
2023-02-02T02:06:18.532Z,-7.73
2023-02-02T02:08:47.367Z,-7.74
2023-02-02T02:11:15.167Z,-7.94
2023-02-02T02:14:00.231Z,-8.01
2023-02-02T02:16:34.416Z,-7.93
2023-02-02T02:19:09.930Z,-7.74
2023-02-02T02:21:58.732Z,-7.92
2023-02-02T02:24:53.318Z,-7.84
2023-02-02T02:27:34.120Z,-7.80
2023-02-02T02:30:03.699Z,-7.90
2023-02-02T02:32:40.792Z,-7.77
2023-02-02T02:35:10.481Z,-7.63
2023-02-02T02:37:57.669Z,-7.66
2023-02-02T02:40:36.943Z,-7.68
2023-02-02T02:43:13.080Z,-7.70
2023-02-02T02:45:40.951Z,-7.94
2023-02-02T02:48:10.460Z,-8.09
2023-02-02T02:50:37.318Z,-8.24
2023-02-02T02:53:13.116Z,-8.30
2023-02-02T02:55:54.923Z,-8.38
2023-02-02T02:58:35.797Z,-8.31
2023-02-02T03:01:08.640Z,-8.27
2023-02-02T03:03:38.291Z,-8.40
2023-02-02T03:06:10.700Z,-8.48
2023-02-02T03:08:42.496Z,-8.67
2023-02-02T03:11:12.489Z,-8.60
2023-02-02T03:13:40.677Z,-8.39
2023-02-02T03:16:08.731Z,-8.33
2023-02-02T03:18:35.511Z,-8.38
2023-02-02T03:21:02.183Z,-8.36
2023-02-02T03:23:28.684Z,-8.34
2023-02-02T03:25:55.683Z,-8.31
2023-02-02T03:28:23.565Z,-8.31
2023-02-02T03:30:52.276Z,-8.33
2023-02-02T03:33:19.241Z,-8.37
2023-02-02T03:35:45.817Z,-8.33
2023-02-02T03:38:14.219Z,-8.34
2023-02-02T03:40:41.560Z,-8.23
2023-02-02T03:43:08.247Z,-7.98
2023-02-02T03:45:40.791Z,-7.78
2023-02-02T03:48:07.404Z,-7.61
2023-02-02T03:50:33.960Z,-7.68
2023-02-02T03:53:00.459Z,-7.62
2023-02-02T03:55:27.059Z,-7.81
2023-02-02T03:57:53.660Z,-8.09
2023-02-02T04:00:20.589Z,-8.01
2023-02-02T04:02:47.145Z,-7.85
2023-02-02T04:05:13.818Z,-7.81
2023-02-02T04:07:40.713Z,-7.86
2023-02-02T04:10:07.352Z,-7.94
2023-02-02T04:12:33.898Z,-7.97
2023-02-02T04:15:00.581Z,-7.88
2023-02-02T04:17:28.228Z,-7.79
2023-02-02T04:19:58.318Z,-7.72
2023-02-02T04:22:27.007Z,-7.72
2023-02-02T04:24:53.555Z,-7.62
2023-02-02T04:27:20.059Z,-7.59
2023-02-02T04:29:46.651Z,-7.65
2023-02-02T04:32:15.677Z,-7.67
2023-02-02T04:34:42.396Z,-7.58
2023-02-02T04:37:10.144Z,-7.69
2023-02-02T04:39:38.506Z,-7.70
2023-02-02T04:42:06.258Z,-7.56
2023-02-02T04:44:34.006Z,-7.65
2023-02-02T04:47:00.606Z,-7.85
2023-02-02T04:49:28.368Z,-7.76
2023-02-02T04:51:54.901Z,-8.09
2023-02-02T04:54:21.584Z,-8.06
2023-02-02T04:56:48.159Z,-8.11
2023-02-02T04:59:14.658Z,-7.99
2023-02-02T05:01:41.243Z,-7.94
2023-02-02T05:04:07.774Z,-7.93
2023-02-02T05:06:35.400Z,-7.89
2023-02-02T05:09:01.949Z,-7.92
2023-02-02T05:11:28.513Z,-7.78
2023-02-02T05:13:56.189Z,-7.70
2023-02-02T05:16:26.420Z,-7.76
2023-02-02T05:18:55.651Z,-7.64
2023-02-02T05:21:23.654Z,-7.68
2023-02-02T05:23:50.250Z,-7.62
2023-02-02T05:26:19.490Z,-7.83
2023-02-02T05:28:47.542Z,-7.70
2023-02-02T05:31:14.556Z,-7.47
2023-02-02T05:33:41.115Z,-7.64
2023-02-02T05:36:07.765Z,-7.92
2023-02-02T05:38:34.837Z,-7.96
2023-02-02T05:41:02.567Z,-8.08
2023-02-02T05:43:31.490Z,-8.06
2023-02-02T05:45:58.202Z,-8.33
2023-02-02T05:48:24.912Z,-8.48
2023-02-02T05:50:57.172Z,-8.58
2023-02-02T05:53:23.908Z,-8.39
2023-02-02T05:55:50.413Z,-8.48
2023-02-02T05:58:16.970Z,-8.59
2023-02-02T06:00:44.768Z,-8.55
2023-02-02T06:03:13.114Z,-8.59
2023-02-02T06:05:39.874Z,-8.60
2023-02-02T06:08:06.673Z,-8.67
2023-02-02T06:10:34.140Z,-8.66
2023-02-02T06:13:00.720Z,-8.77
2023-02-02T06:15:28.987Z,-8.81
2023-02-02T06:17:56.817Z,-8.92
2023-02-02T06:20:24.529Z,-8.80
2023-02-02T06:22:51.093Z,-8.82
2023-02-02T06:25:17.559Z,-8.86
2023-02-02T06:27:46.335Z,-8.85
2023-02-02T06:30:13.444Z,-8.90
2023-02-02T06:32:41.254Z,-8.92
2023-02-02T06:35:08.121Z,-9.00
2023-02-02T06:37:35.204Z,-9.00
2023-02-02T06:40:01.825Z,-9.11
2023-02-02T06:42:28.365Z,-9.13
2023-02-02T06:44:56.085Z,-9.09
2023-02-02T06:47:22.603Z,-9.10
2023-02-02T06:49:49.089Z,-9.02
2023-02-02T06:52:15.643Z,-9.11
2023-02-02T06:54:42.530Z,-9.14
2023-02-02T06:57:10.736Z,-9.08
2023-02-02T06:59:38.290Z,-9.22
2023-02-02T07:02:04.872Z,-9.26
2023-02-02T07:04:31.449Z,-9.12
2023-02-02T07:06:58.033Z,-9.11
2023-02-02T07:09:24.585Z,-9.13
2023-02-02T07:11:52.309Z,-9.06
2023-02-02T07:14:18.764Z,-9.08
2023-02-02T07:16:46.617Z,-8.95
2023-02-02T07:19:13.055Z,-9.00
2023-02-02T07:21:39.724Z,-8.99
2023-02-02T07:24:06.529Z,-8.99
2023-02-02T07:26:34.410Z,-9.01
2023-02-02T07:29:00.958Z,-8.90
2023-02-02T07:31:27.786Z,-8.98
2023-02-02T07:33:54.438Z,-8.92
2023-02-02T07:36:22.105Z,-8.87
2023-02-02T07:38:50.360Z,-8.87
2023-02-02T07:41:17.965Z,-8.82
2023-02-02T07:43:46.488Z,-8.76
2023-02-02T07:46:14.413Z,-8.75
2023-02-02T07:48:41.176Z,-8.79
2023-02-02T07:51:08.895Z,-8.64
2023-02-02T07:53:35.711Z,-8.64
2023-02-02T07:56:15.998Z,-8.68
2023-02-02T07:58:44.715Z,-8.58
2023-02-02T08:01:12.541Z,-8.56
2023-02-02T08:03:39.660Z,-8.62
2023-02-02T08:06:10.440Z,-8.82
2023-02-02T08:08:36.913Z,-8.67
2023-02-02T08:11:03.384Z,-8.55
2023-02-02T08:13:32.242Z,-8.51
2023-02-02T08:16:00.201Z,-8.53
2023-02-02T08:18:26.729Z,-8.38
2023-02-02T08:20:53.241Z,-8.38
2023-02-02T08:23:23.684Z,-8.32
2023-02-02T08:25:50.945Z,-8.15
2023-02-02T08:28:19.458Z,-8.09
2023-02-02T08:30:46.458Z,-8.03
2023-02-02T08:33:13.108Z,-8.17
2023-02-02T08:35:43.775Z,-8.11
2023-02-02T08:38:11.191Z,-7.96
2023-02-02T08:40:37.812Z,-7.73
2023-02-02T08:43:04.700Z,-7.47
2023-02-02T08:46:00.250Z,-7.47
2023-02-02T08:48:19.889Z,-7.48
2023-02-02T08:50:51.442Z,-7.33
2023-02-02T08:53:17.965Z,-7.14
2023-02-02T08:55:44.473Z,-7.18
2023-02-02T08:58:10.962Z,-7.21
2023-02-02T09:00:37.702Z,-7.01
2023-02-02T09:03:04.469Z,-6.92
2023-02-02T09:05:31.310Z,-7.01
2023-02-02T09:07:59.061Z,-6.81
2023-02-02T09:10:25.510Z,-6.59
2023-02-02T09:12:53.305Z,-6.41
2023-02-02T09:15:22.008Z,-6.31
2023-02-02T09:17:50.000Z,-6.18
2023-02-02T09:20:19.682Z,-6.09
2023-02-02T09:22:48.450Z,-5.97
2023-02-02T09:25:15.269Z,-5.88
2023-02-02T09:27:43.314Z,-5.81
2023-02-02T09:30:10.111Z,-5.77
2023-02-02T09:32:36.756Z,-5.71
2023-02-02T09:35:04.745Z,-5.64
2023-02-02T09:37:33.814Z,-5.59
2023-02-02T09:40:01.687Z,-5.53
2023-02-02T09:43:04.200Z,-5.50
2023-02-02T09:45:58.024Z,-5.40
2023-02-02T09:48:42.290Z,-5.33
2023-02-02T09:51:13.652Z,-5.26
2023-02-02T09:53:55.755Z,-5.22
2023-02-02T09:56:32.940Z,-5.17
2023-02-02T09:59:13.803Z,-5.18
2023-02-02T10:01:45.861Z,-5.13
2023-02-02T10:04:12.593Z,-5.06
2023-02-02T10:06:43.790Z,-4.97
2023-02-02T10:09:28.882Z,-4.87
2023-02-02T10:12:15.670Z,-4.81
2023-02-02T10:15:01.129Z,-4.78
2023-02-02T10:17:46.773Z,-4.74
2023-02-02T10:20:33.389Z,-4.67
2023-02-02T10:23:19.985Z,-4.59
2023-02-02T10:25:52.572Z,-4.52
2023-02-02T10:28:20.021Z,-4.44
2023-02-02T10:30:50.543Z,-4.37
2023-02-02T10:33:37.810Z,-4.32
2023-02-02T10:36:13.125Z,-4.28
2023-02-02T10:39:04.675Z,-4.29
2023-02-02T10:41:34.340Z,-4.26
2023-02-02T10:44:24.308Z,-4.20
2023-02-02T10:46:55.835Z,-4.14
2023-02-02T10:49:39.993Z,-4.07
2023-02-02T10:52:17.193Z,-4.02
2023-02-02T10:54:55.888Z,-3.96
2023-02-02T10:57:34.255Z,-3.92
2023-02-02T11:00:16.044Z,-3.90
2023-02-02T11:02:42.499Z,-3.85
2023-02-02T11:05:33.597Z,-3.77
2023-02-02T11:08:00.118Z,-3.75
2023-02-02T11:10:28.434Z,-3.73
2023-02-02T11:12:57.156Z,-3.68
2023-02-02T11:15:25.822Z,-3.65
2023-02-02T11:17:52.591Z,-3.65
2023-02-02T11:20:46.692Z,-3.66
2023-02-02T11:23:17.532Z,-3.61
2023-02-02T11:25:44.053Z,-3.60
2023-02-02T11:28:19.105Z,-3.57
2023-02-02T11:30:50.563Z,-3.58
2023-02-02T11:33:20.556Z,-3.53
2023-02-02T11:35:56.479Z,-3.52
2023-02-02T11:38:23.766Z,-3.57
2023-02-02T11:40:54.147Z,-3.54
2023-02-02T11:43:27.588Z,-3.44
2023-02-02T11:45:56.827Z,-3.35
2023-02-02T11:51:21.054Z,-3.25
2023-02-02T11:53:48.927Z,-3.26
2023-02-02T11:56:20.057Z,-3.25
2023-02-02T11:58:48.847Z,-3.27
2023-02-02T12:01:35.758Z,-3.23
2023-02-02T12:04:04.136Z,-3.20
2023-02-02T12:06:36.652Z,-3.11
2023-02-02T12:09:11.856Z,-3.07
2023-02-02T12:11:38.323Z,-3.07
2023-02-02T12:14:06.097Z,-3.05
2023-02-02T12:16:42.099Z,-3.01
2023-02-02T12:19:31.441Z,-2.99
2023-02-02T12:21:58.602Z,-2.97
2023-02-02T12:24:25.101Z,-2.97
2023-02-02T12:26:58.774Z,-2.92
2023-02-02T12:29:28.080Z,-2.87
2023-02-02T12:32:13.612Z,-2.82
2023-02-02T12:34:49.175Z,-2.80
2023-02-02T12:37:15.765Z,-2.75
2023-02-02T12:39:49.176Z,-2.67
2023-02-02T12:42:35.480Z,-2.64
2023-02-02T12:45:22.571Z,-2.57
2023-02-02T12:50:43.028Z,-2.48
2023-02-02T12:53:29.435Z,-2.40
2023-02-02T12:56:12.560Z,-2.29
2023-02-02T12:58:39.168Z,-2.72
2023-02-02T13:01:08.988Z,-2.85
2023-02-02T13:03:54.156Z,-2.73
2023-02-02T13:06:29.832Z,-2.75
2023-02-02T13:09:01.394Z,-2.89
2023-02-02T13:11:52.429Z,-2.79
2023-02-02T13:14:41.985Z,-2.88
2023-02-02T13:17:13.227Z,-3.13
2023-02-02T13:19:45.393Z,-2.94
2023-02-02T13:22:30.608Z,-3.02
2023-02-02T13:25:00.901Z,-3.15
2023-02-02T13:27:29.309Z,-2.95
2023-02-02T13:29:57.775Z,-3.08
2023-02-02T13:32:30.715Z,-3.27
2023-02-02T13:35:19.165Z,-3.16
2023-02-02T13:37:45.756Z,-3.18
2023-02-02T13:40:12.306Z,-3.29
2023-02-02T13:42:49.756Z,-3.21
2023-02-02T13:45:36.220Z,-3.14
2023-02-02T13:48:23.545Z,-3.31
2023-02-02T13:51:04.990Z,-3.27
2023-02-02T13:53:55.717Z,-3.23
2023-02-02T13:56:28.425Z,-3.32
2023-02-02T13:58:54.983Z,-3.16
2023-02-02T14:01:22.856Z,-3.06
2023-02-02T14:03:54.517Z,-3.40
2023-02-02T14:06:23.637Z,-3.46
2023-02-02T14:08:53.252Z,-3.25
2023-02-02T14:11:25.239Z,-3.48
2023-02-02T14:14:18.785Z,-3.60
2023-02-02T14:16:51.170Z,-3.32
2023-02-02T14:19:41.574Z,-3.42
2023-02-02T14:22:14.709Z,-3.46
2023-02-02T14:24:45.027Z,-3.26
2023-02-02T14:27:11.581Z,-3.41
2023-02-02T14:29:59.325Z,-3.56
2023-02-02T14:32:29.445Z,-3.38
2023-02-02T14:35:00.311Z,-3.47
2023-02-02T14:37:26.865Z,-3.55
2023-02-02T14:39:53.349Z,-3.44
2023-02-02T14:43:01.373Z,-3.38
2023-02-02T14:45:35.148Z,-3.59
2023-02-02T14:48:01.899Z,-3.51
2023-02-02T14:50:28.483Z,-3.50
2023-02-02T14:53:18.102Z,-3.66
2023-02-02T14:56:00.413Z,-3.67
2023-02-02T14:58:48.389Z,-3.60
2023-02-02T15:01:17.792Z,-3.80
2023-02-02T15:03:47.378Z,-3.76
2023-02-02T15:06:24.707Z,-3.65
2023-02-02T15:09:09.598Z,-3.92
2023-02-02T15:11:55.057Z,-4.30
2023-02-02T15:14:22.257Z,-4.34
2023-02-02T15:16:49.473Z,-4.22
2023-02-02T15:19:22.075Z,-4.25
2023-02-02T15:21:49.488Z,-4.29
2023-02-02T15:24:21.673Z,-4.25
2023-02-02T15:26:48.713Z,-4.27
2023-02-02T15:29:28.813Z,-4.48
2023-02-02T15:31:55.819Z,-4.78
2023-02-02T15:34:25.707Z,-4.56
2023-02-02T15:36:56.086Z,-4.67
2023-02-02T15:39:42.896Z,-4.80
2023-02-02T15:42:35.293Z,-4.88
2023-02-02T15:45:01.782Z,-4.85
2023-02-02T15:47:30.573Z,-4.79
2023-02-02T15:49:57.549Z,-4.68
2023-02-02T15:52:27.799Z,-4.79
2023-02-02T15:54:58.076Z,-5.46
2023-02-02T15:57:34.181Z,-5.92
2023-02-02T16:00:02.607Z,-5.78
2023-02-02T16:02:36.645Z,-6.11
2023-02-02T16:05:22.408Z,-6.44
2023-02-02T16:08:03.527Z,-6.45
2023-02-02T16:10:30.492Z,-6.20
2023-02-02T16:12:59.582Z,-6.30
2023-02-02T16:15:27.999Z,-6.43
2023-02-02T16:18:15.373Z,-6.21
2023-02-02T16:20:42.351Z,-6.35
2023-02-02T16:23:14.036Z,-6.49
2023-02-02T16:25:51.702Z,-6.32
2023-02-02T16:28:19.334Z,-6.06
2023-02-02T16:30:46.002Z,-6.12
2023-02-02T16:33:27.568Z,-6.14
2023-02-02T16:35:54.548Z,-5.95
2023-02-02T16:38:27.185Z,-6.02
2023-02-02T16:41:07.541Z,-7.13
2023-02-02T16:43:35.880Z,-7.51
2023-02-02T16:46:05.055Z,-7.53
2023-02-02T16:48:57.169Z,-7.29
2023-02-02T16:51:33.729Z,-7.16
2023-02-02T16:54:20.761Z,-6.89
2023-02-02T16:56:51.510Z,-6.71
2023-02-02T16:59:26.018Z,-6.48
2023-02-02T17:01:56.098Z,-6.50
2023-02-02T17:04:28.198Z,-6.51
2023-02-02T17:06:57.353Z,-6.54
2023-02-02T17:09:34.552Z,-7.04
2023-02-02T17:12:31.957Z,-6.91
2023-02-02T17:15:03.401Z,-7.31
2023-02-02T17:17:30.185Z,-7.20
2023-02-02T17:19:56.783Z,-7.37
2023-02-02T17:22:25.502Z,-7.17
2023-02-02T17:24:53.987Z,-6.94
2023-02-02T17:27:28.269Z,-6.74
2023-02-02T17:29:55.191Z,-7.15
2023-02-02T17:32:21.689Z,-7.05
2023-02-02T17:34:48.143Z,-7.18
2023-02-02T17:37:15.531Z,-7.07
2023-02-02T17:39:43.311Z,-6.76
2023-02-02T17:42:30.680Z,-6.65
2023-02-02T17:44:57.184Z,-6.27
2023-02-02T17:47:23.708Z,-6.30
2023-02-02T17:49:50.249Z,-6.35
2023-02-02T17:52:18.017Z,-6.99
2023-02-02T17:54:45.657Z,-6.90
2023-02-02T17:57:12.098Z,-6.48
2023-02-02T17:59:38.669Z,-6.11
2023-02-02T18:02:05.225Z,-6.41
2023-02-02T18:04:31.740Z,-6.49
2023-02-02T18:06:58.199Z,-6.87
2023-02-02T18:09:26.212Z,-6.84
2023-02-02T18:11:52.689Z,-6.46
2023-02-02T18:14:22.165Z,-6.16
2023-02-02T18:16:48.633Z,-5.87
2023-02-02T18:19:15.120Z,-5.62
2023-02-02T18:21:42.840Z,-5.53
2023-02-02T18:24:13.585Z,-6.01
2023-02-02T18:26:40.953Z,-6.67
2023-02-02T18:29:08.849Z,-6.60
2023-02-02T18:31:35.485Z,-6.21
2023-02-02T18:34:02.071Z,-6.18
2023-02-02T18:36:28.682Z,-5.92
2023-02-02T18:38:56.206Z,-5.66
2023-02-02T18:41:22.900Z,-5.71
2023-02-02T18:43:49.889Z,-5.85
2023-02-02T18:46:16.935Z,-5.57
2023-02-02T18:48:43.475Z,-5.66
2023-02-02T18:51:19.341Z,-6.02
2023-02-02T18:53:46.573Z,-6.07
2023-02-02T18:56:13.518Z,-6.13
2023-02-02T18:58:40.000Z,-6.17
2023-02-02T19:01:08.341Z,-5.99
2023-02-02T19:03:36.590Z,-5.86
2023-02-02T19:06:22.461Z,-6.00
2023-02-02T19:08:49.034Z,-6.19
2023-02-02T19:11:17.489Z,-6.17
2023-02-02T19:13:44.359Z,-6.05
2023-02-02T19:16:29.678Z,-5.90
2023-02-02T19:18:57.424Z,-5.79
2023-02-02T19:21:25.349Z,-5.67
2023-02-02T19:23:53.334Z,-5.94
2023-02-02T19:26:24.783Z,-6.06
2023-02-02T19:28:52.080Z,-6.04
2023-02-02T19:31:18.960Z,-6.07
2023-02-02T19:33:49.629Z,-6.12
2023-02-02T19:36:26.809Z,-6.06
2023-02-02T19:38:59.014Z,-5.88
2023-02-02T19:41:27.848Z,-5.81
2023-02-02T19:44:06.389Z,-5.94
2023-02-02T19:46:40.728Z,-6.18
2023-02-02T19:49:14.992Z,-6.35
2023-02-02T19:51:45.440Z,-6.52
2023-02-02T19:54:32.162Z,-6.75
2023-02-02T19:57:00.679Z,-6.90
2023-02-02T19:59:32.296Z,-7.06
2023-02-02T20:02:03.670Z,-7.16
2023-02-02T20:04:32.205Z,-7.14
2023-02-02T20:06:59.937Z,-7.09
2023-02-02T20:09:29.946Z,-6.87
2023-02-02T20:11:56.678Z,-6.75
2023-02-02T20:14:30.396Z,-6.85
2023-02-02T20:17:00.823Z,-7.12
2023-02-02T20:19:29.060Z,-7.30
2023-02-02T20:21:55.972Z,-7.48
2023-02-02T20:24:24.179Z,-7.63
2023-02-02T20:26:51.873Z,-7.79
2023-02-02T20:29:18.433Z,-7.93
2023-02-02T20:31:46.014Z,-7.99
2023-02-02T20:34:35.437Z,-8.01
2023-02-02T20:37:22.241Z,-7.99
2023-02-02T20:39:54.837Z,-7.96
2023-02-02T20:42:21.585Z,-7.95
2023-02-02T20:44:48.129Z,-7.92
2023-02-02T20:47:16.099Z,-7.89
2023-02-02T20:49:43.051Z,-7.80
2023-02-02T20:52:12.012Z,-7.73
2023-02-02T20:54:40.697Z,-7.77
2023-02-02T20:57:07.242Z,-7.89
2023-02-02T20:59:33.808Z,-8.01
2023-02-02T21:02:00.506Z,-8.07
2023-02-02T21:04:27.559Z,-8.17
2023-02-02T21:06:55.437Z,-8.26
2023-02-02T21:09:23.458Z,-8.37
2023-02-02T21:11:49.969Z,-8.45
2023-02-02T21:14:17.660Z,-8.37
2023-02-02T21:16:44.495Z,-8.37
2023-02-02T21:19:11.180Z,-8.32
2023-02-02T21:21:37.698Z,-8.25
2023-02-02T21:24:04.848Z,-8.30
2023-02-02T21:26:33.312Z,-8.40
2023-02-02T21:28:59.903Z,-8.43
2023-02-02T21:31:27.198Z,-8.46
2023-02-02T21:33:54.158Z,-8.48
2023-02-02T21:36:28.198Z,-8.50
2023-02-02T21:38:58.764Z,-8.33
2023-02-02T21:41:31.200Z,-8.24
2023-02-02T21:43:59.524Z,-8.44
2023-02-02T21:46:31.107Z,-8.54
2023-02-02T21:48:58.747Z,-8.72
2023-02-02T21:51:27.288Z,-8.83
2023-02-02T21:53:55.014Z,-8.92
2023-02-02T21:56:27.270Z,-8.87
2023-02-02T21:58:55.589Z,-8.65
2023-02-02T22:01:36.629Z,-8.62
2023-02-02T22:04:03.425Z,-8.50
2023-02-02T22:06:32.876Z,-8.43
2023-02-02T22:09:01.509Z,-8.49
2023-02-02T22:11:31.919Z,-8.64
2023-02-02T22:14:17.634Z,-8.78
2023-02-02T22:16:48.670Z,-8.88
2023-02-02T22:19:24.161Z,-8.93
2023-02-02T22:21:50.671Z,-8.82
2023-02-02T22:24:17.355Z,-8.85
2023-02-02T22:26:43.966Z,-9.04
2023-02-02T22:29:16.390Z,-9.17
2023-02-02T22:31:44.322Z,-9.21
2023-02-02T22:34:10.877Z,-9.25
2023-02-02T22:36:37.417Z,-9.30
2023-02-02T22:39:03.946Z,-9.33
2023-02-02T22:41:30.481Z,-9.27
2023-02-02T22:43:56.990Z,-9.23
2023-02-02T22:46:24.921Z,-9.30
2023-02-02T22:48:51.457Z,-9.34
2023-02-02T22:51:20.318Z,-9.41
2023-02-02T22:53:47.270Z,-9.17
2023-02-02T22:56:15.176Z,-9.02
2023-02-02T22:58:41.634Z,-9.16
2023-02-02T23:01:09.442Z,-10.13
2023-02-02T23:03:35.894Z,-10.64
2023-02-02T23:06:02.438Z,-10.85
2023-02-02T23:08:28.878Z,-10.76
2023-02-02T23:10:55.374Z,-10.65
2023-02-02T23:13:21.834Z,-10.95
2023-02-02T23:15:49.455Z,-11.12
2023-02-02T23:18:15.933Z,-10.90
2023-02-02T23:20:42.476Z,-10.82
2023-02-02T23:23:08.978Z,-10.85
2023-02-02T23:25:36.087Z,-10.75
2023-02-02T23:28:02.723Z,-10.84
2023-02-02T23:30:29.306Z,-10.92
2023-02-02T23:32:55.848Z,-10.73
2023-02-02T23:35:22.402Z,-10.88
2023-02-02T23:37:48.997Z,-10.60
2023-02-02T23:40:15.667Z,-10.20
2023-02-02T23:42:42.276Z,-10.02
2023-02-02T23:45:09.122Z,-9.99
2023-02-02T23:47:37.141Z,-10.78
2023-02-02T23:50:05.375Z,-11.21
2023-02-02T23:52:34.409Z,-11.48
2023-02-02T23:55:01.567Z,-11.29
2023-02-02T23:57:29.347Z,-11.19
2023-02-02T23:59:55.809Z,-11.48
